createdAt,value
2019-05-19T00:01:05.414Z,17.37
2019-05-19T00:03:33.796Z,18.37
2019-05-19T00:06:01.876Z,18.50
2019-05-19T00:08:29.974Z,18.37
2019-05-19T00:10:58.095Z,18.63
2019-05-19T00:13:26.372Z,17.30
2019-05-19T00:15:54.674Z,16.90
2019-05-19T00:18:22.798Z,18.13
2019-05-19T00:20:50.910Z,16.53
2019-05-19T00:23:18.992Z,17.57
2019-05-19T00:25:47.116Z,17.27
2019-05-19T00:28:15.169Z,16.97
2019-05-19T00:30:43.354Z,18.60
2019-05-19T00:33:11.470Z,18.90
2019-05-19T00:35:39.583Z,18.07
2019-05-19T00:38:07.614Z,19.00
2019-05-19T00:40:35.734Z,17.03
2019-05-19T00:43:03.816Z,18.60
2019-05-19T00:45:31.873Z,17.87
2019-05-19T00:48:00.036Z,17.57
2019-05-19T00:50:28.223Z,18.47
2019-05-19T00:52:56.496Z,17.93
2019-05-19T00:55:24.803Z,18.23
2019-05-19T00:57:53.272Z,18.53
2019-05-19T01:00:21.684Z,17.60
2019-05-19T01:02:49.808Z,18.13
2019-05-19T01:05:20.662Z,17.07
2019-05-19T01:07:47.624Z,17.63
2019-05-19T01:10:15.773Z,16.90
2019-05-19T01:12:43.895Z,17.63
2019-05-19T01:15:12.081Z,17.57
2019-05-19T01:17:40.427Z,18.30
2019-05-19T01:20:09.763Z,18.27
2019-05-19T01:22:37.858Z,19.37
2019-05-19T01:25:06.755Z,20.10
2019-05-19T01:27:34.860Z,19.27
2019-05-19T01:30:03.007Z,21.80
2019-05-19T01:32:31.129Z,19.33
2019-05-19T01:34:59.224Z,18.53
2019-05-19T01:37:27.316Z,18.60
2019-05-19T01:39:55.392Z,18.57
2019-05-19T01:42:23.498Z,19.80
2019-05-19T01:44:51.606Z,23.67
2019-05-19T01:47:19.726Z,22.07
2019-05-19T01:49:47.812Z,24.40
2019-05-19T01:52:15.949Z,23.77
2019-05-19T01:54:44.053Z,23.15
2019-05-19T01:57:12.182Z,21.60
2019-05-19T01:59:40.290Z,23.55
2019-05-19T02:02:08.409Z,21.70
2019-05-19T02:04:36.631Z,19.70
2019-05-19T02:07:05.788Z,18.73
2019-05-19T02:09:33.865Z,19.10
2019-05-19T02:12:02.010Z,19.40
2019-05-19T02:14:30.104Z,18.43
2019-05-19T02:16:58.186Z,18.73
2019-05-19T02:19:26.511Z,20.33
2019-05-19T02:24:22.021Z,25.05
2019-05-19T02:26:50.099Z,22.33
2019-05-19T03:06:05.497Z,20.50
2019-05-19T03:08:33.722Z,24.05
2019-05-19T03:11:02.036Z,25.35
2019-05-19T03:13:30.306Z,23.55
2019-05-19T03:15:58.440Z,25.32
2019-05-19T03:18:26.576Z,22.80
2019-05-19T03:21:09.768Z,22.80
2019-05-19T03:23:24.412Z,22.03
2019-05-19T03:25:52.519Z,23.25
2019-05-19T03:28:20.657Z,22.73
2019-05-19T03:31:14.124Z,24.45
2019-05-19T03:33:44.403Z,22.07
2019-05-19T03:36:12.497Z,24.80
2019-05-19T03:38:40.578Z,23.57
2019-05-19T03:41:08.668Z,22.13
2019-05-19T03:43:36.777Z,24.30
2019-05-19T03:46:04.866Z,24.87
2019-05-19T03:48:32.925Z,23.25
2019-05-19T03:51:02.819Z,25.45
2019-05-19T03:53:30.884Z,29.07
2019-05-19T03:55:58.984Z,27.37
2019-05-19T03:58:27.171Z,26.30
2019-05-19T04:00:55.241Z,32.98
2019-05-19T04:03:23.365Z,36.77
2019-05-19T04:05:51.491Z,35.10
2019-05-19T04:08:19.753Z,35.35
2019-05-19T04:10:48.707Z,36.03
2019-05-19T04:13:16.752Z,35.05
2019-05-19T04:15:44.871Z,34.70
2019-05-19T04:18:13.050Z,35.85
2019-05-19T04:20:41.156Z,35.73
2019-05-19T04:23:10.715Z,36.55
2019-05-19T04:25:38.912Z,33.45
2019-05-19T04:28:07.169Z,34.95
2019-05-19T04:30:35.235Z,35.92
2019-05-19T04:33:03.809Z,35.97
2019-05-19T04:35:31.945Z,36.77
2019-05-19T04:38:00.135Z,35.25
2019-05-19T04:40:28.244Z,36.30
2019-05-19T04:42:56.375Z,35.60
2019-05-19T04:45:24.553Z,37.08
2019-05-19T04:47:52.673Z,38.10
2019-05-19T04:50:20.828Z,37.65
2019-05-19T04:52:48.933Z,37.50
2019-05-19T04:55:17.051Z,37.15
2019-05-19T04:57:45.158Z,39.18
2019-05-19T05:00:13.373Z,40.43
2019-05-19T05:02:41.666Z,42.17
2019-05-19T05:05:10.863Z,43.23
2019-05-19T05:07:38.966Z,43.85
2019-05-19T05:10:07.237Z,43.08
2019-05-19T05:12:35.319Z,43.13
2019-05-19T05:15:03.438Z,42.83
2019-05-19T05:17:31.510Z,41.08
2019-05-19T05:19:59.623Z,41.60
2019-05-19T05:22:27.831Z,44.23
2019-05-19T05:24:56.032Z,44.30
2019-05-19T05:27:24.192Z,42.73
2019-05-19T05:29:52.274Z,43.78
2019-05-19T05:32:20.428Z,42.53
2019-05-19T05:34:48.546Z,44.48
2019-05-19T05:37:16.700Z,44.13
2019-05-19T05:39:44.869Z,43.20
2019-05-19T05:42:12.993Z,44.13
2019-05-19T05:44:41.074Z,41.77
2019-05-19T05:47:09.312Z,44.55
2019-05-19T05:49:37.394Z,45.25
2019-05-19T05:52:05.554Z,46.28
2019-05-19T05:54:33.690Z,47.45
2019-05-19T05:57:01.858Z,45.92
2019-05-19T05:59:30.038Z,47.97
2019-05-19T06:01:58.122Z,48.30
2019-05-19T06:04:26.295Z,49.20
2019-05-19T06:06:54.413Z,48.63
2019-05-19T06:09:22.564Z,50.05
2019-05-19T06:11:50.687Z,50.08
2019-05-19T06:14:18.855Z,49.08
2019-05-19T06:16:46.923Z,47.93
2019-05-19T06:19:15.256Z,46.00
2019-05-19T06:21:43.336Z,46.33
2019-05-19T06:24:11.419Z,44.45
2019-05-19T06:26:39.548Z,45.50
2019-05-19T06:29:07.630Z,49.05
2019-05-19T06:31:35.783Z,47.50
2019-05-19T06:34:03.909Z,47.45
2019-05-19T06:36:32.110Z,48.05
2019-05-19T06:39:00.284Z,46.13
2019-05-19T06:41:28.351Z,46.60
2019-05-19T06:43:56.446Z,48.05
2019-05-19T06:46:25.695Z,47.70
2019-05-19T06:48:53.957Z,48.95
2019-05-19T06:51:22.052Z,46.63
2019-05-19T06:53:50.177Z,48.40
2019-05-19T06:56:18.416Z,46.75
2019-05-19T06:58:46.655Z,46.48
2019-05-19T07:01:14.819Z,47.78
2019-05-19T07:03:42.961Z,46.40
2019-05-19T07:06:11.036Z,49.18
2019-05-19T07:08:39.143Z,49.80
2019-05-19T07:11:07.324Z,49.45
2019-05-19T07:13:35.480Z,51.42
2019-05-19T07:16:03.603Z,51.83
2019-05-19T07:18:31.684Z,51.08
2019-05-19T07:21:00.872Z,47.95
2019-05-19T07:23:29.097Z,49.48
2019-05-19T07:25:57.256Z,52.83
2019-05-19T07:28:25.386Z,52.33
2019-05-19T07:30:53.513Z,53.48
2019-05-19T07:33:21.799Z,52.50
2019-05-19T07:35:49.928Z,50.75
2019-05-19T07:38:18.014Z,50.08
2019-05-19T07:40:46.135Z,48.42
2019-05-19T07:43:14.384Z,49.23
2019-05-19T07:45:42.489Z,43.48
2019-05-19T07:48:10.729Z,44.40
2019-05-19T07:50:38.954Z,41.63
2019-05-19T07:53:07.035Z,41.65
2019-05-19T07:55:35.126Z,40.67
2019-05-19T07:58:08.088Z,38.73
2019-05-19T08:00:36.316Z,41.13
2019-05-19T08:03:04.525Z,45.60
2019-05-19T08:05:32.757Z,41.35
2019-05-19T08:08:02.823Z,43.33
2019-05-19T08:10:30.939Z,41.48
2019-05-19T08:12:59.020Z,40.70
2019-05-19T08:15:27.097Z,36.48
2019-05-19T08:17:55.228Z,37.08
2019-05-19T08:20:23.302Z,40.20
2019-05-19T08:22:51.586Z,37.73
2019-05-19T08:25:19.679Z,39.13
2019-05-19T08:27:47.783Z,37.83
2019-05-19T08:30:16.125Z,39.20
2019-05-19T08:32:44.202Z,38.65
2019-05-19T08:35:12.385Z,40.20
2019-05-19T08:37:40.473Z,39.03
2019-05-19T08:40:08.658Z,37.65
2019-05-19T08:42:36.797Z,35.17
2019-05-19T08:45:05.303Z,34.27
2019-05-19T08:47:33.402Z,34.58
2019-05-19T08:50:02.117Z,33.70
2019-05-19T08:52:30.327Z,32.93
2019-05-19T08:54:58.488Z,32.60
2019-05-19T08:57:26.641Z,34.08
2019-05-19T08:59:54.776Z,31.85
2019-05-19T09:02:22.866Z,32.08
2019-05-19T09:04:51.018Z,28.20
2019-05-19T09:07:19.101Z,27.27
2019-05-19T09:09:47.490Z,26.30
2019-05-19T09:12:15.619Z,28.10
2019-05-19T09:14:43.728Z,24.73
2019-05-19T09:17:11.914Z,23.62
2019-05-19T09:19:40.067Z,22.32
2019-05-19T09:22:08.795Z,22.13
2019-05-19T09:24:37.463Z,20.00
2019-05-19T09:27:05.699Z,18.62
2019-05-19T09:29:33.826Z,18.10
2019-05-19T09:32:02.027Z,18.30
2019-05-19T09:34:30.130Z,16.97
2019-05-19T09:36:58.220Z,15.35
2019-05-19T09:39:26.325Z,15.48
2019-05-19T09:41:54.401Z,10.80
2019-05-19T09:44:22.510Z,9.98
2019-05-19T09:46:50.601Z,9.45
2019-05-19T09:49:34.348Z,9.63
2019-05-19T09:52:03.106Z,10.43
2019-05-19T09:54:44.138Z,10.10
2019-05-19T09:57:02.432Z,8.60
2019-05-19T09:59:30.557Z,8.15
2019-05-19T10:01:58.687Z,8.40
2019-05-19T10:04:26.825Z,9.13
2019-05-19T10:06:54.936Z,9.00
2019-05-19T10:09:39.172Z,9.98
2019-05-19T10:12:07.287Z,9.73
2019-05-19T10:14:35.357Z,9.40
2019-05-19T10:17:03.434Z,9.25
2019-05-19T10:19:31.551Z,10.20
2019-05-19T10:21:59.667Z,9.80
2019-05-19T10:24:27.835Z,10.40
2019-05-19T10:26:55.882Z,9.87
2019-05-19T10:29:23.992Z,9.78
2019-05-19T10:31:54.397Z,9.08
2019-05-19T10:34:21.797Z,9.10
2019-05-19T10:36:49.927Z,9.55
2019-05-19T10:39:18.034Z,8.90
2019-05-19T10:41:46.112Z,6.50
2019-05-19T10:44:14.231Z,5.87
2019-05-19T10:46:42.325Z,5.78
2019-05-19T10:49:10.513Z,5.20
2019-05-19T10:51:38.740Z,5.30
2019-05-19T10:54:06.791Z,5.50
2019-05-19T10:58:42.128Z,5.22
2019-05-19T11:01:11.350Z,6.17
2019-05-19T11:03:40.583Z,5.90
2019-05-19T11:06:09.912Z,6.22
2019-05-19T11:08:39.142Z,6.47
2019-05-19T11:11:08.460Z,6.93
2019-05-19T11:13:37.657Z,6.80
2019-05-19T11:16:06.928Z,6.10
2019-05-19T11:18:36.081Z,6.10
2019-05-19T11:21:05.346Z,5.90
2019-05-19T11:23:34.625Z,6.53
2019-05-19T11:26:04.062Z,7.12
2019-05-19T11:28:33.264Z,6.30
2019-05-19T11:31:02.580Z,7.40
2019-05-19T11:33:33.004Z,7.00
2019-05-19T11:36:02.317Z,7.30
2019-05-19T11:38:31.502Z,6.37
2019-05-19T11:41:00.720Z,6.35
2019-05-19T11:43:29.951Z,6.50
2019-05-19T11:45:59.286Z,6.30
2019-05-19T11:48:29.575Z,6.53
2019-05-19T11:50:59.007Z,6.83
2019-05-19T11:53:28.151Z,6.42
2019-05-19T11:56:06.197Z,6.40
2019-05-19T11:58:28.769Z,6.15
2019-05-19T12:00:57.985Z,5.97
2019-05-19T12:03:27.163Z,6.40
2019-05-19T12:05:56.356Z,6.08
2019-05-19T12:08:25.572Z,6.08
2019-05-19T12:10:54.800Z,5.60
2019-05-19T12:13:23.984Z,5.80
2019-05-19T12:15:53.148Z,5.95
2019-05-19T12:18:22.397Z,5.20
2019-05-19T12:20:51.629Z,5.08
2019-05-19T12:23:20.843Z,5.45
2019-05-19T12:25:50.048Z,6.08
2019-05-19T12:28:19.224Z,4.90
2019-05-19T12:30:48.426Z,5.70
2019-05-19T12:33:17.579Z,6.30
2019-05-19T12:35:46.799Z,7.17
2019-05-19T12:38:15.997Z,5.67
2019-05-19T12:40:45.145Z,5.53
2019-05-19T12:43:14.380Z,5.80
2019-05-19T12:45:43.736Z,6.00
2019-05-19T12:48:13.118Z,7.28
2019-05-19T12:50:42.485Z,5.85
2019-05-19T12:53:11.825Z,5.78
2019-05-19T12:55:40.987Z,6.07
2019-05-19T12:58:10.166Z,5.62
2019-05-19T13:00:40.187Z,5.67
2019-05-19T13:03:09.466Z,5.58
2019-05-19T13:05:38.676Z,6.03
2019-05-19T13:08:11.364Z,5.97
2019-05-19T13:10:39.203Z,5.50
2019-05-19T13:13:08.427Z,6.08
2019-05-19T13:15:37.786Z,5.03
2019-05-19T13:18:06.996Z,4.90
2019-05-19T13:20:36.350Z,4.70
2019-05-19T13:23:05.556Z,4.80
2019-05-19T13:25:37.053Z,4.87
2019-05-19T13:28:06.280Z,4.72
2019-05-19T13:30:35.512Z,4.47
2019-05-19T13:33:05.397Z,4.20
2019-05-19T13:35:34.633Z,4.58
2019-05-19T13:38:03.967Z,5.45
2019-05-19T13:40:33.317Z,5.40
2019-05-19T13:43:02.504Z,5.78
2019-05-19T13:45:31.887Z,5.50
2019-05-19T13:48:03.015Z,5.40
2019-05-19T13:50:32.397Z,5.30
2019-05-19T13:53:01.656Z,5.53
2019-05-19T13:55:30.905Z,6.23
2019-05-19T13:58:00.102Z,5.90
2019-05-19T14:00:29.254Z,6.23
2019-05-19T14:02:58.449Z,5.80
2019-05-19T14:05:27.645Z,5.60
2019-05-19T14:07:58.939Z,6.17
2019-05-19T14:10:28.129Z,5.40
2019-05-19T14:37:40.238Z,4.50
2019-05-19T14:40:09.856Z,4.70
2019-05-19T14:43:00.741Z,4.60
2019-05-19T14:45:30.174Z,4.57
2019-05-19T14:47:59.448Z,4.70
2019-05-19T14:50:30.295Z,5.00
2019-05-19T14:52:59.688Z,4.50
2019-05-19T14:55:29.059Z,4.93
2019-05-19T14:57:58.322Z,5.10
2019-05-19T15:00:27.505Z,5.60
2019-05-19T15:02:56.737Z,5.43
2019-05-19T15:05:25.974Z,5.63
2019-05-19T15:07:55.293Z,5.43
2019-05-19T15:10:24.498Z,5.70
2019-05-19T15:12:53.834Z,5.60
2019-05-19T15:15:23.000Z,5.40
2019-05-19T15:17:52.207Z,5.50
2019-05-19T15:20:21.458Z,5.33
2019-05-19T15:22:50.755Z,5.67
2019-05-19T15:25:19.985Z,5.37
2019-05-19T15:27:59.755Z,4.53
2019-05-19T15:30:20.103Z,4.70
2019-05-19T15:32:49.379Z,4.40
2019-05-19T15:35:18.650Z,4.47
2019-05-19T15:37:47.865Z,4.70
2019-05-19T15:40:17.127Z,4.50
2019-05-19T15:42:46.275Z,4.60
2019-05-19T15:45:15.621Z,4.42
2019-05-19T15:47:45.049Z,4.83
2019-05-19T15:50:14.251Z,4.80
2019-05-19T15:52:43.612Z,6.47
2019-05-19T15:55:12.922Z,7.90
2019-05-19T15:57:45.050Z,8.13
2019-05-19T16:00:14.808Z,15.75
2019-05-19T16:02:44.093Z,18.82
2019-05-19T16:05:13.513Z,17.85
2019-05-19T16:07:44.660Z,16.60
2019-05-19T16:10:14.727Z,17.07
2019-05-19T16:12:43.916Z,15.80
2019-05-19T16:15:15.304Z,15.37
2019-05-19T16:17:44.516Z,15.67
2019-05-19T16:20:17.234Z,15.23
2019-05-19T16:22:46.465Z,16.63
2019-05-19T16:25:15.634Z,14.83
2019-05-19T16:27:44.958Z,14.40
2019-05-19T16:30:14.347Z,12.80
2019-05-19T16:32:43.604Z,12.90
2019-05-19T16:35:12.940Z,14.43
2019-05-19T16:37:42.725Z,14.40
2019-05-19T16:40:12.164Z,15.60
2019-05-19T16:42:41.322Z,17.03
2019-05-19T16:45:10.742Z,15.00
2019-05-19T16:47:39.929Z,15.97
2019-05-19T16:50:09.294Z,16.83
2019-05-19T16:52:38.475Z,15.77
2019-05-19T16:55:23.294Z,12.93
2019-05-19T16:57:52.472Z,13.63
2019-05-19T17:00:22.327Z,12.53
2019-05-19T17:02:51.568Z,13.20
2019-05-19T17:05:20.883Z,12.00
2019-05-19T17:07:50.146Z,11.63
2019-05-19T17:10:19.625Z,13.00
2019-05-19T17:12:48.975Z,12.13
2019-05-19T17:15:18.524Z,13.23
2019-05-19T17:17:47.850Z,13.70
2019-05-19T17:20:17.172Z,14.10
2019-05-19T17:22:46.382Z,13.57
2019-05-19T17:25:15.652Z,13.13
2019-05-19T17:27:44.866Z,13.97
2019-05-19T17:30:14.645Z,14.10
2019-05-19T17:32:45.730Z,14.73
2019-05-19T17:35:16.226Z,14.23
2019-05-19T17:37:45.566Z,15.27
2019-05-19T17:40:15.664Z,14.27
2019-05-19T17:42:44.923Z,14.87
2019-05-19T17:45:15.388Z,14.90
2019-05-19T17:47:44.964Z,14.70
2019-05-19T17:50:15.662Z,14.87
2019-05-19T17:52:44.956Z,14.47
2019-05-19T17:55:15.697Z,15.10
2019-05-19T17:57:45.345Z,15.23
2019-05-19T18:00:18.320Z,15.13
2019-05-19T18:02:49.017Z,14.97
2019-05-19T18:05:21.455Z,15.20
2019-05-19T18:07:51.167Z,14.50
2019-05-19T18:10:21.464Z,15.70
2019-05-19T18:12:54.681Z,15.97
2019-05-19T18:15:24.253Z,15.60
2019-05-19T18:17:55.762Z,15.70
2019-05-19T18:20:25.079Z,16.20
2019-05-19T18:22:57.031Z,15.43
2019-05-19T18:25:29.852Z,16.10
2019-05-19T18:27:59.754Z,17.20
2019-05-19T18:30:29.596Z,16.07
2019-05-19T18:32:59.223Z,16.20
2019-05-19T18:35:29.736Z,17.43
2019-05-19T18:38:02.633Z,17.37
2019-05-19T18:40:32.211Z,17.73
2019-05-19T18:43:04.125Z,15.70
2019-05-19T18:45:33.402Z,15.63
2019-05-19T18:48:02.885Z,13.77
2019-05-19T18:50:32.296Z,14.50
2019-05-19T18:53:09.138Z,13.40
2019-05-19T18:55:40.286Z,14.37
2019-05-19T18:58:10.989Z,13.53
2019-05-19T19:00:40.563Z,13.03
2019-05-19T19:03:10.111Z,13.27
2019-05-19T19:05:39.883Z,13.40
2019-05-19T19:08:09.685Z,12.90
2019-05-19T19:10:39.419Z,11.20
2019-05-19T19:13:09.133Z,12.30
2019-05-19T19:15:41.643Z,11.63
2019-05-19T19:18:11.947Z,11.60
2019-05-19T19:20:41.754Z,11.43
2019-05-19T19:23:11.514Z,11.90
2019-05-19T19:25:40.969Z,11.77
2019-05-19T19:28:10.722Z,11.70
2019-05-19T19:30:40.166Z,12.03
2019-05-19T19:33:09.477Z,11.20
2019-05-19T19:35:39.764Z,11.73
2019-05-19T19:38:13.163Z,11.57
2019-05-19T19:40:42.395Z,11.50
2019-05-19T19:43:11.875Z,11.33
2019-05-19T19:45:41.442Z,11.80
2019-05-19T19:48:11.921Z,12.17
2019-05-19T19:50:43.037Z,12.23
2019-05-19T19:53:12.951Z,12.53
2019-05-19T19:55:43.058Z,12.80
2019-05-19T19:58:13.789Z,12.60
2019-05-19T20:00:44.963Z,12.23
2019-05-19T20:03:16.495Z,12.87
2019-05-19T20:05:47.487Z,13.53
2019-05-19T20:08:17.095Z,14.53
2019-05-19T20:10:48.407Z,13.87
2019-05-19T20:13:19.029Z,13.30
2019-05-19T20:15:48.801Z,13.60
2019-05-19T20:18:18.314Z,13.40
2019-05-19T20:20:47.584Z,13.47
2019-05-19T20:23:16.798Z,13.00
2019-05-19T20:25:46.017Z,13.87
2019-05-19T20:28:16.266Z,12.33
2019-05-19T20:30:45.505Z,13.90
2019-05-19T20:33:14.743Z,13.73
2019-05-19T20:35:46.548Z,14.50
2019-05-19T20:38:16.405Z,14.30
2019-05-19T20:40:46.924Z,14.30
2019-05-19T20:43:16.147Z,14.17
2019-05-19T20:45:45.425Z,12.30
2019-05-19T20:48:15.034Z,13.00
2019-05-19T20:50:44.384Z,13.53
2019-05-19T20:53:13.572Z,13.13
2019-05-19T20:55:42.838Z,13.67
2019-05-19T20:58:12.178Z,13.07
2019-05-19T21:00:49.941Z,12.77
2019-05-19T21:03:12.982Z,12.27
2019-05-19T21:05:42.155Z,12.53
2019-05-19T21:08:11.459Z,12.20
2019-05-19T21:10:40.916Z,13.53
2019-05-19T21:13:10.268Z,12.97
2019-05-19T21:15:39.604Z,13.63
2019-05-19T21:18:08.860Z,13.60
2019-05-19T21:20:38.113Z,13.87
2019-05-19T21:23:07.286Z,13.97
2019-05-19T21:25:36.747Z,14.70
2019-05-19T21:28:05.989Z,14.03
2019-05-19T21:30:35.492Z,14.70
2019-05-19T21:33:05.894Z,14.97
2019-05-19T21:35:35.308Z,15.13
2019-05-19T21:38:05.616Z,15.23
2019-05-19T21:40:34.822Z,14.27
2019-05-19T21:43:04.089Z,14.87
2019-05-19T21:45:33.260Z,14.03
2019-05-19T21:48:02.625Z,15.53
2019-05-19T21:50:31.821Z,14.57
2019-05-19T21:53:00.992Z,13.70
2019-05-19T21:55:30.209Z,14.47
2019-05-19T21:57:59.410Z,13.37
2019-05-19T22:00:30.696Z,14.53
2019-05-19T22:02:59.995Z,14.60
2019-05-19T22:05:29.191Z,15.03
2019-05-19T22:08:07.899Z,15.77
2019-05-19T22:10:37.215Z,15.73
2019-05-19T22:13:06.415Z,15.60
2019-05-19T22:15:35.824Z,15.97
2019-05-19T22:18:05.427Z,16.07
2019-05-19T22:20:34.972Z,15.97
2019-05-19T22:23:04.183Z,15.87
2019-05-19T22:25:33.386Z,16.43
2019-05-19T22:28:02.655Z,16.10
2019-05-19T22:30:31.967Z,15.43
2019-05-19T22:33:01.125Z,16.57
2019-05-19T22:35:30.297Z,15.63
2019-05-19T22:37:59.502Z,15.97
2019-05-19T22:40:28.670Z,16.20
2019-05-19T22:42:57.912Z,15.90
2019-05-19T22:45:27.203Z,16.17
2019-05-19T22:47:56.510Z,15.63
2019-05-19T22:50:25.711Z,16.67
2019-05-19T22:52:54.990Z,15.40
2019-05-19T22:55:24.159Z,16.03
2019-05-19T22:57:53.482Z,16.73
2019-05-19T23:00:22.964Z,16.23
2019-05-19T23:02:52.157Z,15.27
2019-05-19T23:05:21.341Z,16.40
2019-05-19T23:07:51.800Z,15.63
2019-05-19T23:10:22.511Z,15.80
2019-05-19T23:12:51.687Z,16.07
2019-05-19T23:15:21.164Z,16.33
2019-05-19T23:17:50.502Z,16.33
2019-05-19T23:20:19.643Z,17.07
2019-05-19T23:22:48.934Z,15.87
2019-05-19T23:25:18.246Z,17.00
2019-05-19T23:27:49.264Z,17.47
2019-05-19T23:30:18.822Z,17.63
2019-05-19T23:32:47.989Z,17.93
2019-05-19T23:35:17.337Z,17.83
2019-05-19T23:37:46.450Z,17.97
2019-05-19T23:40:15.756Z,19.33
2019-05-19T23:42:44.912Z,19.10
2019-05-19T23:45:14.082Z,19.00
2019-05-19T23:47:43.504Z,18.90
2019-05-19T23:50:12.913Z,17.77
2019-05-19T23:52:42.166Z,19.20
2019-05-19T23:55:13.794Z,18.73
2019-05-19T23:57:42.960Z,19.03
